createdAt,value
2022-11-25T00:01:28.548Z,30.70
2022-11-25T00:03:57.106Z,26.08
2022-11-25T00:06:26.789Z,28.70
2022-11-25T00:08:56.346Z,23.85
2022-11-25T00:11:23.944Z,28.30
2022-11-25T00:13:51.814Z,28.77
2022-11-25T00:16:21.093Z,25.75
2022-11-25T00:18:54.995Z,26.45
2022-11-25T00:21:24.681Z,27.10
2022-11-25T00:23:53.941Z,26.90
2022-11-25T00:26:22.005Z,31.30
2022-11-25T00:28:49.876Z,25.90
2022-11-25T00:31:20.457Z,24.23
2022-11-25T00:33:48.505Z,24.92
2022-11-25T00:36:24.286Z,25.65
2022-11-25T00:39:03.991Z,27.05
2022-11-25T00:41:50.154Z,25.85
2022-11-25T00:44:40.388Z,27.77
2022-11-25T00:47:18.916Z,22.33
2022-11-25T00:49:51.967Z,24.73
2022-11-25T00:52:24.408Z,23.92
2022-11-25T00:54:52.831Z,26.00
2022-11-25T00:57:22.212Z,26.77
2022-11-25T00:59:49.735Z,23.62
2022-11-25T01:02:18.945Z,26.40
2022-11-25T01:04:46.945Z,25.58
2022-11-25T01:07:15.414Z,24.83
2022-11-25T01:09:43.131Z,27.75
2022-11-25T01:12:10.633Z,25.33
2022-11-25T01:14:38.308Z,26.42
2022-11-25T01:17:06.411Z,27.87
2022-11-25T01:19:33.959Z,29.02
2022-11-25T01:22:01.349Z,25.62
2022-11-25T01:24:29.066Z,26.40
2022-11-25T01:26:56.380Z,27.20
2022-11-25T01:29:23.800Z,27.52
2022-11-25T01:31:57.872Z,25.70
2022-11-25T01:34:27.855Z,25.42
2022-11-25T01:39:32.095Z,31.08
2022-11-25T01:42:01.367Z,31.37
2022-11-25T01:44:30.843Z,28.58
2022-11-25T01:47:13.718Z,29.60
2022-11-25T01:49:46.887Z,25.75
2022-11-25T01:52:27.721Z,25.23
2022-11-25T01:55:07.210Z,25.40
2022-11-25T01:57:49.900Z,29.15
2022-11-25T02:00:17.960Z,25.35
2022-11-25T02:02:46.781Z,24.98
2022-11-25T02:05:18.261Z,23.38
2022-11-25T02:07:47.482Z,23.60
2022-11-25T02:10:18.566Z,29.58
2022-11-25T02:12:48.345Z,27.75
2022-11-25T02:15:16.115Z,25.05
2022-11-25T02:17:44.191Z,28.62
2022-11-25T02:20:17.065Z,28.55
2022-11-25T02:22:50.364Z,28.55
2022-11-25T02:25:24.189Z,28.42
2022-11-25T02:27:55.617Z,29.05
2022-11-25T02:30:23.555Z,29.33
2022-11-25T02:32:51.288Z,28.87
2022-11-25T02:35:33.115Z,28.00
2022-11-25T02:38:39.842Z,30.30
2022-11-25T02:41:44.429Z,28.83
2022-11-25T02:44:12.121Z,31.50
2022-11-25T02:46:39.470Z,29.58
2022-11-25T02:49:09.713Z,27.77
2022-11-25T02:51:39.894Z,26.90
2022-11-25T02:54:13.220Z,29.00
2022-11-25T02:56:41.134Z,27.37
2022-11-25T02:59:09.122Z,29.00
2022-11-25T03:01:38.353Z,27.23
2022-11-25T03:04:06.853Z,34.60
2022-11-25T03:06:34.535Z,30.12
2022-11-25T03:09:01.994Z,31.55
2022-11-25T03:11:49.321Z,28.65
2022-11-25T03:14:17.043Z,29.90
2022-11-25T03:16:44.870Z,32.45
2022-11-25T03:19:12.381Z,30.37
2022-11-25T03:21:39.671Z,32.10
2022-11-25T03:24:07.800Z,30.62
2022-11-25T03:26:35.232Z,32.33
2022-11-25T03:29:02.699Z,33.95
2022-11-25T03:31:30.389Z,31.45
2022-11-25T03:33:58.919Z,28.12
2022-11-25T03:36:26.570Z,29.58
2022-11-25T03:38:54.157Z,25.98
2022-11-25T03:41:21.430Z,30.62
2022-11-25T03:43:49.055Z,33.75
2022-11-25T03:46:17.491Z,29.50
2022-11-25T03:48:45.084Z,29.48
2022-11-25T03:51:12.506Z,32.10
2022-11-25T03:53:40.420Z,30.12
2022-11-25T03:56:08.158Z,32.33
2022-11-25T03:58:35.561Z,32.95
2022-11-25T04:01:04.207Z,29.37
2022-11-25T04:03:32.204Z,32.08
2022-11-25T04:05:59.908Z,31.33
2022-11-25T04:08:28.408Z,31.00
2022-11-25T04:10:56.547Z,37.67
2022-11-25T04:13:24.146Z,35.63
2022-11-25T04:15:52.167Z,34.55
2022-11-25T04:18:20.645Z,32.67
2022-11-25T04:20:49.922Z,32.03
2022-11-25T04:23:17.438Z,27.83
2022-11-25T04:25:45.309Z,34.42
2022-11-25T04:28:13.550Z,31.00
2022-11-25T04:30:41.232Z,31.37
2022-11-25T04:33:09.210Z,32.90
2022-11-25T04:35:36.610Z,34.63
2022-11-25T04:38:04.153Z,62.45
2022-11-25T04:40:33.786Z,58.78
2022-11-25T04:43:06.038Z,53.10
2022-11-25T04:45:51.940Z,49.90
2022-11-25T04:48:22.809Z,33.80
2022-11-25T04:50:50.465Z,33.13
2022-11-25T04:53:17.880Z,31.75
2022-11-25T04:55:45.475Z,33.33
2022-11-25T04:58:14.692Z,33.88
2022-11-25T05:00:42.225Z,33.30
2022-11-25T05:03:10.544Z,33.30
2022-11-25T05:05:39.279Z,31.92
2022-11-25T05:08:06.770Z,34.17
2022-11-25T05:10:35.919Z,35.70
2022-11-25T05:13:03.703Z,35.13
2022-11-25T05:15:31.714Z,32.22
2022-11-25T05:17:59.201Z,34.35
2022-11-25T05:20:27.861Z,33.72
2022-11-25T05:22:55.316Z,31.42
2022-11-25T05:25:24.609Z,35.08
2022-11-25T05:27:53.958Z,32.38
2022-11-25T05:30:21.245Z,30.62
2022-11-25T05:32:48.610Z,31.95
2022-11-25T05:35:16.729Z,30.15
2022-11-25T05:37:45.029Z,34.88
2022-11-25T05:40:13.142Z,28.65
2022-11-25T05:42:41.806Z,30.58
2022-11-25T05:45:09.443Z,32.75
2022-11-25T05:47:36.978Z,30.83
2022-11-25T05:50:05.387Z,31.67
2022-11-25T05:52:32.921Z,29.05
2022-11-25T05:55:01.099Z,31.48
2022-11-25T05:57:29.195Z,33.08
2022-11-25T05:59:56.796Z,30.65
2022-11-25T06:02:24.822Z,35.28
2022-11-25T06:04:52.555Z,27.62
2022-11-25T06:07:20.247Z,29.08
2022-11-25T06:09:47.664Z,28.85
2022-11-25T06:12:15.839Z,30.08
2022-11-25T06:14:43.756Z,27.80
2022-11-25T06:17:11.235Z,29.27
2022-11-25T06:19:40.089Z,28.35
2022-11-25T06:22:08.442Z,27.83
2022-11-25T06:24:36.069Z,28.35
2022-11-25T06:27:04.904Z,26.73
2022-11-25T06:29:33.205Z,25.50
2022-11-25T06:32:01.257Z,31.77
2022-11-25T06:34:30.018Z,35.60
2022-11-25T06:37:00.194Z,34.53
2022-11-25T06:39:27.525Z,34.05
2022-11-25T06:41:55.149Z,34.55
2022-11-25T06:44:22.537Z,31.42
2022-11-25T06:46:49.985Z,32.75
2022-11-25T06:49:17.646Z,31.87
2022-11-25T06:51:45.066Z,31.12
2022-11-25T06:54:12.476Z,34.53
2022-11-25T06:56:40.135Z,34.55
2022-11-25T06:59:07.595Z,33.85
2022-11-25T07:01:35.210Z,29.83
2022-11-25T07:04:05.174Z,33.65
2022-11-25T07:06:33.431Z,30.52
2022-11-25T07:09:01.625Z,32.92
2022-11-25T07:11:32.781Z,32.45
2022-11-25T07:14:05.698Z,31.50
2022-11-25T07:16:33.798Z,32.28
2022-11-25T07:19:02.216Z,31.12
2022-11-25T07:21:30.651Z,30.67
2022-11-25T07:24:00.591Z,33.65
2022-11-25T07:26:30.011Z,31.10
2022-11-25T07:29:02.998Z,34.80
2022-11-25T07:31:33.770Z,30.52
2022-11-25T07:34:04.676Z,32.53
2022-11-25T07:36:34.209Z,32.58
2022-11-25T07:39:04.963Z,38.20
2022-11-25T07:41:32.528Z,36.50
2022-11-25T07:44:05.742Z,37.17
2022-11-25T07:46:39.519Z,34.05
2022-11-25T07:49:11.633Z,35.78
2022-11-25T07:51:41.891Z,37.83
2022-11-25T07:54:12.352Z,34.70
2022-11-25T07:56:45.687Z,32.13
2022-11-25T07:59:17.974Z,35.80
2022-11-25T08:01:47.408Z,31.05
2022-11-25T08:04:20.074Z,30.92
2022-11-25T08:06:49.488Z,31.65
2022-11-25T08:09:22.113Z,29.35
2022-11-25T08:11:49.996Z,33.05
2022-11-25T08:14:18.563Z,26.33
2022-11-25T08:16:46.115Z,31.37
2022-11-25T08:19:15.542Z,30.90
2022-11-25T08:21:43.394Z,29.83
2022-11-25T08:24:16.364Z,29.00
2022-11-25T08:26:44.242Z,30.95
2022-11-25T08:29:14.189Z,28.62
2022-11-25T08:31:43.061Z,27.33
2022-11-25T08:34:21.584Z,30.15
2022-11-25T08:36:49.631Z,30.20
2022-11-25T08:39:50.429Z,31.33
2022-11-25T08:42:07.412Z,28.92
2022-11-25T08:44:35.937Z,32.10
2022-11-25T08:47:03.850Z,28.60
2022-11-25T08:49:34.932Z,30.77
2022-11-25T08:52:08.098Z,29.58
2022-11-25T08:54:35.498Z,25.95
2022-11-25T08:57:02.947Z,25.37
2022-11-25T08:59:30.550Z,27.70
2022-11-25T09:01:58.045Z,27.98
2022-11-25T09:04:25.818Z,30.45
2022-11-25T09:06:53.486Z,29.65
2022-11-25T09:09:20.795Z,28.87
2022-11-25T09:11:48.191Z,30.08
2022-11-25T09:14:15.983Z,28.50
2022-11-25T09:16:43.447Z,31.23
2022-11-25T09:19:10.864Z,29.40
2022-11-25T09:21:38.617Z,26.10
2022-11-25T09:24:06.359Z,25.20
2022-11-25T09:26:35.865Z,26.77
2022-11-25T09:29:03.899Z,22.17
2022-11-25T09:31:31.396Z,23.52
2022-11-25T09:33:58.927Z,23.08
2022-11-25T09:36:26.792Z,22.80
2022-11-25T09:38:54.414Z,19.17
2022-11-25T09:41:48.098Z,24.58
2022-11-25T09:44:58.916Z,23.05
2022-11-25T09:47:57.057Z,20.50
2022-11-25T09:50:56.284Z,23.58
2022-11-25T09:53:48.205Z,25.98
2022-11-25T09:56:28.049Z,26.65
2022-11-25T09:59:00.088Z,24.08
2022-11-25T10:04:02.965Z,23.52
2022-11-25T10:06:33.498Z,22.90
2022-11-25T10:09:11.647Z,22.15
2022-11-25T10:11:40.018Z,19.50
2022-11-25T10:14:35.395Z,21.08
2022-11-25T10:17:30.035Z,25.80
2022-11-25T10:20:00.237Z,20.80
2022-11-25T10:22:33.059Z,20.92
2022-11-25T10:25:14.522Z,24.05
2022-11-25T10:27:47.563Z,27.52
2022-11-25T10:30:22.161Z,21.40
2022-11-25T10:33:17.701Z,19.98
2022-11-25T10:35:49.809Z,19.65
2022-11-25T10:38:26.352Z,22.55
2022-11-25T10:40:54.725Z,21.45
2022-11-25T10:43:24.100Z,23.10
2022-11-25T10:46:13.682Z,20.48
2022-11-25T10:48:55.154Z,19.30
2022-11-25T10:51:34.311Z,17.63
2022-11-25T10:54:26.783Z,15.48
2022-11-25T10:57:00.860Z,24.15
2022-11-25T10:59:39.229Z,24.37
2022-11-25T11:02:16.087Z,19.50
2022-11-25T11:04:53.888Z,20.80
2022-11-25T11:07:22.478Z,25.02
2022-11-25T11:09:50.034Z,23.42
2022-11-25T11:12:24.911Z,23.80
2022-11-25T11:14:54.152Z,22.75
2022-11-25T11:17:31.907Z,21.08
2022-11-25T11:20:06.779Z,23.50
2022-11-25T11:22:46.469Z,24.92
2022-11-25T11:25:20.277Z,23.67
2022-11-25T11:27:47.918Z,24.70
2022-11-25T11:30:18.116Z,25.48
2022-11-25T11:33:07.139Z,26.30
2022-11-25T11:35:51.365Z,24.15
2022-11-25T11:38:28.082Z,25.02
2022-11-25T11:41:06.029Z,23.85
2022-11-25T11:44:14.695Z,22.62
2022-11-25T11:46:52.362Z,21.15
2022-11-25T11:49:52.625Z,22.30
2022-11-25T11:52:31.195Z,17.62
2022-11-25T11:56:05.680Z,20.02
2022-11-25T11:58:59.636Z,16.35
2022-11-25T12:01:45.170Z,15.60
2022-11-25T12:04:21.434Z,17.27
2022-11-25T12:07:02.441Z,18.83
2022-11-25T12:09:32.677Z,18.98
2022-11-25T12:12:04.362Z,20.25
2022-11-25T12:14:51.073Z,24.45
2022-11-25T12:17:23.337Z,20.15
2022-11-25T12:20:01.445Z,17.73
2022-11-25T12:22:32.586Z,21.12
2022-11-25T12:25:22.651Z,17.33
2022-11-25T12:28:07.400Z,17.20
2022-11-25T12:30:40.688Z,18.10
2022-11-25T12:33:16.553Z,16.62
2022-11-25T12:35:46.826Z,14.95
2022-11-25T12:38:26.118Z,16.40
2022-11-25T12:41:06.531Z,18.25
2022-11-25T12:43:49.474Z,15.07
2022-11-25T12:46:17.912Z,14.40
2022-11-25T12:48:45.346Z,19.23
2022-11-25T12:51:46.430Z,14.27
2022-11-25T12:54:33.622Z,12.85
2022-11-25T12:57:19.570Z,14.80
2022-11-25T13:03:17.760Z,13.73
2022-11-25T13:06:23.884Z,10.55
2022-11-25T13:08:59.969Z,12.85
2022-11-25T13:11:46.145Z,14.27
2022-11-25T13:14:24.542Z,19.98
2022-11-25T13:16:54.072Z,13.35
2022-11-25T13:19:23.041Z,12.25
2022-11-25T13:21:57.489Z,12.48
2022-11-25T13:24:31.527Z,12.65
2022-11-25T13:27:01.186Z,12.45
2022-11-25T13:29:28.692Z,13.85
2022-11-25T13:32:02.853Z,19.75
2022-11-25T13:34:31.170Z,14.10
2022-11-25T13:37:00.456Z,16.77
2022-11-25T13:39:33.598Z,18.17
2022-11-25T13:42:33.612Z,14.40
2022-11-25T13:45:01.169Z,16.10
2022-11-25T13:47:39.044Z,13.85
2022-11-25T13:50:21.969Z,15.10
2022-11-25T13:53:06.163Z,17.05
2022-11-25T13:55:39.495Z,21.73
2022-11-25T13:58:10.069Z,21.02
2022-11-25T14:00:37.280Z,22.35
2022-11-25T14:03:19.869Z,18.35
2022-11-25T14:06:28.266Z,16.25
2022-11-25T14:09:03.678Z,15.63
2022-11-25T14:11:36.411Z,13.70
2022-11-25T14:14:49.509Z,17.60
2022-11-25T14:17:38.609Z,18.77
2022-11-25T14:20:22.085Z,17.60
2022-11-25T14:23:05.513Z,21.23
2022-11-25T14:25:56.895Z,20.60
2022-11-25T14:28:54.019Z,20.45
2022-11-25T14:31:27.055Z,18.25
2022-11-25T14:33:58.087Z,17.67
2022-11-25T14:36:38.997Z,17.35
2022-11-25T14:39:10.102Z,17.58
2022-11-25T14:42:03.940Z,20.02
2022-11-25T14:44:59.254Z,22.55
2022-11-25T14:47:29.985Z,18.20
2022-11-25T14:50:26.568Z,19.58
2022-11-25T14:52:47.903Z,24.25
2022-11-25T14:55:28.839Z,20.77
2022-11-25T14:57:56.532Z,21.27
2022-11-25T15:00:24.102Z,25.35
2022-11-25T15:02:57.183Z,20.85
2022-11-25T15:05:40.945Z,27.17
2022-11-25T15:08:17.830Z,27.37
2022-11-25T15:10:52.286Z,33.92
2022-11-25T15:13:27.291Z,34.83
2022-11-25T15:15:55.942Z,38.75
2022-11-25T15:18:24.765Z,60.78
2022-11-25T15:20:56.746Z,64.37
2022-11-25T15:23:34.782Z,59.72
2022-11-25T15:26:02.729Z,60.70
2022-11-25T15:28:37.917Z,58.75
2022-11-25T15:31:18.754Z,88.78
2022-11-25T15:33:47.922Z,94.22
2022-11-25T15:36:15.315Z,88.25
2022-11-25T15:38:46.615Z,81.15
2022-11-25T15:41:34.565Z,73.90
2022-11-25T15:44:03.803Z,64.87
2022-11-25T15:46:34.361Z,66.05
2022-11-25T15:49:06.607Z,64.47
2022-11-25T15:51:41.518Z,67.15
2022-11-25T15:54:25.727Z,68.70
2022-11-25T15:56:56.532Z,55.60
2022-11-25T15:59:56.522Z,55.53
2022-11-25T16:02:48.998Z,60.15
2022-11-25T16:05:22.920Z,52.45
2022-11-25T16:07:50.390Z,56.72
2022-11-25T16:10:33.861Z,59.05
2022-11-25T16:13:21.833Z,78.00
2022-11-25T16:15:57.924Z,75.70
2022-11-25T16:18:51.271Z,68.72
2022-11-25T16:21:22.969Z,62.62
2022-11-25T16:23:57.207Z,73.43
2022-11-25T16:26:30.281Z,101.43
2022-11-25T16:29:00.148Z,93.72
2022-11-25T16:31:28.612Z,88.03
2022-11-25T16:34:00.727Z,99.75
2022-11-25T16:36:28.372Z,86.63
2022-11-25T16:38:55.754Z,95.38
2022-11-25T16:41:26.865Z,88.95
2022-11-25T16:43:58.610Z,90.07
2022-11-25T16:46:28.235Z,80.15
2022-11-25T16:48:55.841Z,79.25
2022-11-25T16:51:25.460Z,79.95
2022-11-25T16:53:52.770Z,80.10
2022-11-25T16:56:25.515Z,88.78
2022-11-25T17:01:21.801Z,85.75
2022-11-25T17:03:52.334Z,80.62
2022-11-25T17:06:22.715Z,80.97
2022-11-25T17:08:50.720Z,77.82
2022-11-25T17:11:25.871Z,83.32
2022-11-25T17:13:53.806Z,125.43
2022-11-25T17:16:24.215Z,124.97
2022-11-25T17:18:53.718Z,144.45
2022-11-25T17:21:26.826Z,102.12
2022-11-25T17:23:58.478Z,103.10
2022-11-25T17:26:40.480Z,117.60
2022-11-25T17:29:12.760Z,155.33
2022-11-25T17:31:40.725Z,169.15
2022-11-25T17:34:12.526Z,151.82
2022-11-25T17:36:40.253Z,136.02
2022-11-25T17:39:13.513Z,158.98
2022-11-25T17:41:43.735Z,150.25
2022-11-25T17:44:16.437Z,175.77
2022-11-25T17:46:44.949Z,162.93
2022-11-25T17:49:15.113Z,145.10
2022-11-25T17:51:43.473Z,157.12
2022-11-25T17:54:11.195Z,155.68
2022-11-25T17:56:40.105Z,148.50
2022-11-25T17:59:25.604Z,128.70
2022-11-25T18:01:53.544Z,123.93
2022-11-25T18:04:30.886Z,117.82
2022-11-25T18:06:58.393Z,123.25
2022-11-25T18:09:25.980Z,129.07
2022-11-25T18:11:55.617Z,134.70
2022-11-25T18:14:35.608Z,129.02
2022-11-25T18:17:06.023Z,113.22
2022-11-25T18:19:34.376Z,117.32
2022-11-25T18:22:12.632Z,102.35
2022-11-25T18:24:41.039Z,118.72
2022-11-25T18:27:14.473Z,110.47
2022-11-25T18:29:42.045Z,102.07
2022-11-25T18:32:10.162Z,111.53
2022-11-25T18:34:37.635Z,112.68
2022-11-25T18:37:05.546Z,133.75
2022-11-25T18:39:32.893Z,115.20
2022-11-25T18:42:00.828Z,115.72
2022-11-25T18:44:31.632Z,108.93
2022-11-25T18:46:58.939Z,99.53
2022-11-25T18:49:26.285Z,93.07
2022-11-25T18:51:53.890Z,79.40
2022-11-25T18:54:21.207Z,82.43
2022-11-25T18:56:51.682Z,81.30
2022-11-25T18:59:26.282Z,81.82
2022-11-25T19:01:54.288Z,82.60
2022-11-25T19:04:21.922Z,76.30
2022-11-25T19:06:49.437Z,75.97
2022-11-25T19:09:16.798Z,76.40
2022-11-25T19:11:50.515Z,76.95
2022-11-25T19:14:30.598Z,78.18
2022-11-25T19:17:02.194Z,93.10
2022-11-25T19:19:29.919Z,86.80
2022-11-25T19:22:01.150Z,82.10
2022-11-25T19:24:29.042Z,73.15
2022-11-25T19:26:57.456Z,76.82
2022-11-25T19:29:37.500Z,75.10
2022-11-25T19:34:43.914Z,82.40
2022-11-25T19:37:15.985Z,77.80
2022-11-25T19:39:43.558Z,75.75
2022-11-25T19:42:11.067Z,69.32
2022-11-25T19:44:38.718Z,74.78
2022-11-25T19:47:15.202Z,78.97
2022-11-25T19:49:43.830Z,77.28
2022-11-25T19:52:16.675Z,81.63
2022-11-25T19:54:44.060Z,72.57
2022-11-25T19:57:20.619Z,79.37
2022-11-25T19:59:48.323Z,79.20
2022-11-25T20:02:20.624Z,78.50
2022-11-25T20:04:50.041Z,77.53
2022-11-25T20:07:19.099Z,91.32
2022-11-25T20:09:47.663Z,118.80
2022-11-25T20:12:20.099Z,126.85
2022-11-25T20:14:47.927Z,104.97
2022-11-25T20:17:32.239Z,98.65
2022-11-25T20:20:07.441Z,104.38
2022-11-25T20:22:36.436Z,96.28
2022-11-25T20:25:06.099Z,95.72
2022-11-25T20:27:34.201Z,107.60
2022-11-25T20:30:01.850Z,91.35
2022-11-25T20:32:30.957Z,77.97
2022-11-25T20:34:58.782Z,81.93
2022-11-25T20:37:28.575Z,78.87
2022-11-25T20:39:57.645Z,67.72
2022-11-25T20:42:25.103Z,59.15
2022-11-25T20:44:57.332Z,61.65
2022-11-25T20:49:54.038Z,61.30
2022-11-25T20:52:28.223Z,60.22
2022-11-25T20:54:56.129Z,72.75
2022-11-25T20:57:23.777Z,70.20
2022-11-25T20:59:51.313Z,69.93
2022-11-25T21:02:21.544Z,69.15
2022-11-25T21:04:49.098Z,65.45
2022-11-25T21:07:17.889Z,67.72
2022-11-25T21:09:45.642Z,66.75
2022-11-25T21:12:18.826Z,60.40
2022-11-25T21:14:47.456Z,63.53
2022-11-25T21:17:14.977Z,63.33
2022-11-25T21:19:42.299Z,66.37
2022-11-25T21:22:13.692Z,61.90
2022-11-25T21:24:41.899Z,63.80
2022-11-25T21:27:15.568Z,60.15
2022-11-25T21:29:44.420Z,64.65
2022-11-25T21:32:22.859Z,67.68
2022-11-25T21:34:50.589Z,64.43
2022-11-25T21:37:36.508Z,62.67
2022-11-25T21:40:10.173Z,60.17
2022-11-25T21:42:37.464Z,62.30
2022-11-25T21:45:05.607Z,60.47
2022-11-25T21:47:32.941Z,73.05
2022-11-25T21:50:00.645Z,72.53
2022-11-25T21:52:28.288Z,66.90
2022-11-25T21:54:55.586Z,67.25
2022-11-25T21:57:28.098Z,81.32
2022-11-25T21:59:55.768Z,92.35
2022-11-25T22:02:24.283Z,114.40
2022-11-25T22:04:52.093Z,61.42
2022-11-25T22:07:19.781Z,62.65
2022-11-25T22:09:47.191Z,59.15
2022-11-25T22:12:38.163Z,58.78
2022-11-25T22:15:22.912Z,88.60
2022-11-25T22:17:53.424Z,104.65
2022-11-25T22:20:33.184Z,79.93
2022-11-25T22:23:01.595Z,71.78
2022-11-25T22:25:30.291Z,64.82
2022-11-25T22:27:58.044Z,66.10
2022-11-25T22:30:25.662Z,80.20
2022-11-25T22:32:59.478Z,64.40
2022-11-25T22:35:27.897Z,83.55
2022-11-25T22:37:55.717Z,101.53
2022-11-25T22:40:23.876Z,91.78
2022-11-25T22:42:52.267Z,105.12
2022-11-25T22:45:33.767Z,89.97
2022-11-25T22:48:04.626Z,95.33
2022-11-25T22:50:33.467Z,106.05
2022-11-25T22:53:01.653Z,65.10
2022-11-25T22:55:31.097Z,84.15
2022-11-25T22:58:00.616Z,67.87
2022-11-25T23:00:40.933Z,71.18
2022-11-25T23:03:15.642Z,76.93
2022-11-25T23:05:43.264Z,56.88
2022-11-25T23:08:16.546Z,61.40
2022-11-25T23:10:44.915Z,60.10
2022-11-25T23:13:12.774Z,75.32
2022-11-25T23:15:45.128Z,65.82
2022-11-25T23:18:16.358Z,54.72
2022-11-25T23:20:43.712Z,77.82
2022-11-25T23:23:18.918Z,87.90
2022-11-25T23:25:47.269Z,59.30
2022-11-25T23:28:16.248Z,95.18
2022-11-25T23:30:50.183Z,63.17
2022-11-25T23:33:38.644Z,74.22
2022-11-25T23:36:09.883Z,101.90
2022-11-25T23:38:52.403Z,72.72
2022-11-25T23:41:22.383Z,55.35
2022-11-25T23:43:50.054Z,94.40
2022-11-25T23:46:21.437Z,110.30
2022-11-25T23:48:54.030Z,91.28
2022-11-25T23:51:23.549Z,122.20
2022-11-25T23:53:51.635Z,73.30
2022-11-25T23:56:19.138Z,78.68
2022-11-25T23:58:46.820Z,112.72
